Time;durP1;ratioP1;P1;durP2;ratioP2;P2;SDS_P1;SDS_P2;PMS_P1;PMS_P2;Temp;Humidity;BMP_temperature;BMP_pressure;BME280_temperature;BME280_humidity;BME280_pressure;Samples;Min_cycle;Max_cycle;Signal;HPM_P1;HPM_P2
2023/06/07 00:00:02;;;;;;;8.70;3.70;;;;;;;-143.84;90.09;44089.50;5109574;28;20437;-61
2023/06/07 00:02:30;;;;;;;8.53;4.07;;;;;;;-143.84;90.03;44062.84;5109860;28;20439;-61
2023/06/07 00:04:57;;;;;;;7.27;3.80;;;;;;;-143.84;89.71;44169.47;5109213;28;20471;-60
2023/06/07 00:07:24;;;;;;;7.53;4.00;;;;;;;-143.84;89.69;44142.81;5109127;28;21010;-61
2023/06/07 00:09:51;;;;;;;10.43;4.17;;;;;;;-143.84;90.01;44102.84;5109161;28;20473;-60
2023/06/07 00:12:20;;;;;;;7.83;3.60;;;;;;;-143.84;89.93;44104.72;5109522;28;20435;-60
2023/06/07 00:14:47;;;;;;;10.90;3.90;;;;;;;-143.84;90.05;44102.84;5109232;28;20495;-61
2023/06/07 00:17:15;;;;;;;8.97;4.10;;;;;;;-143.84;90.04;44100.94;5109284;28;20443;-60
2023/06/07 00:19:42;;;;;;;7.37;4.80;;;;;;;-143.84;89.74;44131.38;5109284;28;20445;-62
2023/06/07 00:22:12;;;;;;;6.17;3.33;;;;;;;-143.84;89.70;44182.78;5112441;28;20440;-60
2023/06/07 00:24:39;;;;;;;7.70;3.87;;;;;;;-143.84;89.63;44161.84;5113427;28;20565;-60
2023/06/07 00:27:07;;;;;;;7.57;4.10;;;;;;;-143.84;89.70;44159.94;5113724;28;20458;-60
2023/06/07 00:29:36;;;;;;;7.33;3.60;;;;;;;-143.84;89.77;44119.97;5113527;28;20941;-60
2023/06/07 00:32:03;;;;;;;11.37;3.97;;;;;;;-143.84;89.30;44293.19;5113546;28;20484;-61
2023/06/07 00:34:30;;;;;;;12.70;3.67;;;;;;;-143.84;88.99;44375.06;5113375;28;20489;-60
2023/06/07 00:36:57;;;;;;;6.70;3.63;;;;;;;-143.84;88.58;44504.53;5113165;28;20508;-60
2023/06/07 00:39:24;;;;;;;6.43;4.37;;;;;;;-143.84;88.13;44536.88;5112932;28;20485;-60
2023/06/07 00:41:51;;;;;;;6.37;3.43;;;;;;;-143.84;88.28;44527.38;5113221;28;20435;-61
2023/06/07 00:44:19;;;;;;;5.67;3.20;;;;;;;-143.84;88.77;44475.97;5112960;28;20482;-60
2023/06/07 00:46:47;;;;;;;4.03;3.50;;;;;;;-143.84;88.61;44462.63;5112729;28;20436;-61
2023/06/07 00:49:16;;;;;;;7.83;4.10;;;;;;;-143.84;88.72;44479.78;5113177;28;20496;-61
2023/06/07 00:51:44;;;;;;;7.47;4.33;;;;;;;-143.84;88.98;44434.09;5113139;28;20945;-60
2023/06/07 00:54:17;;;;;;;13.97;4.10;;;;;;;-143.84;88.54;44519.75;5113162;28;20431;-60
2023/06/07 00:56:45;;;;;;;3.60;3.10;;;;;;;-143.84;88.38;44550.22;5112823;28;20870;-60
2023/06/07 00:59:12;;;;;;;4.97;3.23;;;;;;;-143.84;87.65;44632.09;5112636;28;20446;-61
2023/06/07 01:01:41;;;;;;;5.10;3.30;;;;;;;-143.84;87.89;44664.44;5112833;28;20435;-60
2023/06/07 01:04:10;;;;;;;16.53;4.00;;;;;;;-143.84;88.19;44605.44;5112461;28;20922;-60
2023/06/07 01:06:37;;;;;;;16.13;3.30;;;;;;;-143.84;88.11;44595.91;5112891;28;20442;-61
2023/06/07 01:09:06;;;;;;;7.80;3.43;;;;;;;-143.84;88.47;44588.28;5112474;28;20554;-61
2023/06/07 01:11:35;;;;;;;14.30;3.50;;;;;;;-143.84;88.62;44557.84;5112509;28;21073;-60
2023/06/07 01:14:03;;;;;;;7.23;3.83;;;;;;;-143.84;88.46;44574.97;5112144;28;20454;-60
2023/06/07 01:16:31;;;;;;;5.37;3.00;;;;;;;-143.84;87.97;44626.38;5111990;28;20435;-60
2023/06/07 01:18:58;;;;;;;5.40;4.23;;;;;;;-143.84;88.13;44653.03;5112433;28;20463;-60
2023/06/07 01:21:26;;;;;;;4.03;3.70;;;;;;;-143.84;88.73;44544.50;5112264;28;20446;-60
2023/06/07 01:23:56;;;;;;;5.00;3.60;;;;;;;-143.84;88.62;44567.34;5112208;28;20475;-60
2023/06/07 01:26:26;;;;;;;3.97;3.53;;;;;;;-143.84;88.75;44548.31;5112169;28;20497;-60
2023/06/07 01:28:55;;;;;;;5.83;4.10;;;;;;;-143.84;88.70;44552.13;5111939;28;20924;-60
2023/06/07 01:31:24;;;;;;;6.70;4.20;;;;;;;-143.84;88.70;44569.25;5111461;28;20451;-60
2023/06/07 01:33:52;;;;;;;4.37;3.60;;;;;;;-143.84;88.90;44512.13;5112152;28;20435;-61
2023/06/07 01:36:20;;;;;;;8.83;3.90;;;;;;;-143.84;89.02;44510.22;5112054;28;20548;-61
2023/06/07 01:38:49;;;;;;;6.20;3.67;;;;;;;-143.84;88.79;44554.03;5112064;28;20432;-61
2023/06/07 01:41:18;;;;;;;4.60;4.00;;;;;;;-143.84;88.92;44554.03;5112093;28;20506;-61
2023/06/07 01:43:48;;;;;;;9.00;4.30;;;;;;;-143.84;89.13;44489.28;5111620;28;20505;-61
2023/06/07 01:46:16;;;;;;;11.30;4.70;;;;;;;-143.84;89.17;44493.09;5111838;28;20574;-60
2023/06/07 01:48:43;;;;;;;6.70;3.93;;;;;;;-143.84;89.37;44441.69;5111770;28;20477;-61
2023/06/07 01:51:11;;;;;;;10.67;4.13;;;;;;;-143.84;89.58;44430.28;5111660;28;20469;-60
2023/06/07 01:53:39;;;;;;;5.30;3.33;;;;;;;-143.84;89.81;44361.72;5111569;28;20458;-60
2023/06/07 01:56:14;;;;;;;6.33;4.23;;;;;;;-143.84;89.97;44333.19;5111588;28;20439;-61
2023/06/07 01:58:56;;;;;;;5.30;4.17;;;;;;;-143.84;90.07;44285.59;5111824;28;20439;-61
2023/06/07 02:01:31;;;;;;;7.33;4.03;;;;;;;-143.84;90.14;44264.66;5111683;28;20774;-60
2023/06/07 02:04:01;;;;;;;7.73;3.97;;;;;;;-143.84;90.19;44222.75;5111284;28;21168;-60
2023/06/07 02:06:31;;;;;;;5.03;4.30;;;;;;;-143.84;90.64;44188.50;5111253;28;20863;-60
2023/06/07 02:09:04;;;;;;;5.37;3.50;;;;;;;-143.84;90.65;44186.59;5111353;28;20519;-60
2023/06/07 02:11:32;;;;;;;5.93;4.30;;;;;;;-143.84;90.74;44104.72;5111633;28;21270;-60
2023/06/07 02:14:01;;;;;;;8.37;3.73;;;;;;;-143.84;90.61;44118.06;5110987;28;20500;-61
2023/06/07 02:16:35;;;;;;;10.83;4.17;;;;;;;-143.84;90.64;44156.13;5070527;28;20442;-61
2023/06/07 02:19:04;;;;;;;7.20;4.40;;;;;;;-143.84;90.98;44083.78;5070481;28;20793;-61
2023/06/07 02:21:32;;;;;;;4.47;3.97;;;;;;;-143.84;91.07;44070.47;5070305;28;20441;-61
2023/06/07 02:23:59;;;;;;;8.90;4.67;;;;;;;-143.84;91.25;44024.78;5070154;28;20477;-61
2023/06/07 02:26:27;;;;;;;8.33;4.33;;;;;;;-143.84;91.60;43973.38;5070392;28;20554;-61
2023/06/07 02:28:54;;;;;;;8.03;3.90;;;;;;;-143.84;91.76;43941.03;5070062;28;21243;-61
2023/06/07 02:31:23;;;;;;;4.30;3.90;;;;;;;-143.84;91.89;43920.09;5070257;28;20437;-60
2023/06/07 02:33:50;;;;;;;7.60;3.80;;;;;;;-143.84;91.91;43925.78;5070292;28;20951;-61
2023/06/07 02:36:21;;;;;;;14.67;4.50;;;;;;;-143.84;92.05;43874.41;5070180;28;20445;-60
2023/06/07 02:38:48;;;;;;;8.83;4.47;;;;;;;-143.84;92.27;43853.47;5070467;28;20437;-60
2023/06/07 02:41:15;;;;;;;8.57;3.90;;;;;;;-143.84;92.53;43868.69;5070070;28;20437;-60
2023/06/07 02:43:43;;;;;;;5.20;4.50;;;;;;;-143.84;92.62;43824.91;5069358;28;20453;-60
2023/06/07 02:46:11;;;;;;;11.90;4.20;;;;;;;-143.84;92.89;43796.34;5070045;28;20445;-60
2023/06/07 02:48:40;;;;;;;6.60;4.10;;;;;;;-143.84;93.00;43758.28;5069942;28;20449;-60
2023/06/07 02:51:07;;;;;;;5.83;4.47;;;;;;;-143.84;93.12;43769.72;5069994;28;20438;-61
2023/06/07 02:53:34;;;;;;;5.70;3.90;;;;;;;-143.84;93.04;43775.41;5069860;28;20448;-60
2023/06/07 02:56:01;;;;;;;7.70;4.20;;;;;;;-143.84;92.92;43792.56;5069755;28;20866;-60
2023/06/07 02:58:28;;;;;;;7.37;4.00;;;;;;;-143.84;92.88;43813.50;5069705;28;20449;-60
2023/06/07 03:00:57;;;;;;;7.03;3.97;;;;;;;-143.84;92.97;43790.66;5069659;28;20453;-60
2023/06/07 03:03:24;;;;;;;6.87;5.00;;;;;;;-143.84;92.71;43788.75;5069683;28;20438;-60
2023/06/07 03:05:52;;;;;;;10.37;4.60;;;;;;;-143.84;92.95;43809.69;5069622;28;20476;-60
2023/06/07 03:08:20;;;;;;;7.70;4.97;;;;;;;-143.84;92.98;43760.19;5070093;28;20449;-61
2023/06/07 03:10:47;;;;;;;7.90;4.10;;;;;;;-143.84;92.99;43777.31;5069528;28;20855;-60
2023/06/07 03:13:14;;;;;;;5.73;4.33;;;;;;;-143.84;92.62;43807.78;5069485;28;20494;-60
2023/06/07 03:15:42;;;;;;;8.83;4.40;;;;;;;-143.84;92.45;43819.19;5097248;28;20486;-61
2023/06/07 03:18:13;;;;;;;8.60;4.47;;;;;;;-143.84;92.29;43826.81;5110068;28;20436;-60
2023/06/07 03:20:41;;;;;;;10.43;5.10;;;;;;;-143.84;92.29;43815.41;5110319;28;20439;-60
2023/06/07 03:23:09;;;;;;;4.63;4.00;;;;;;;-143.84;92.14;43790.66;5110108;28;20440;-61
2023/06/07 03:25:36;;;;;;;9.80;4.40;;;;;;;-143.84;91.71;43876.31;5109649;28;20475;-60
2023/06/07 03:28:04;;;;;;;6.50;3.83;;;;;;;-143.84;91.72;43857.28;5109575;28;20440;-60
2023/06/07 03:30:31;;;;;;;4.37;3.77;;;;;;;-143.84;91.48;43885.81;5109850;28;20443;-61
2023/06/07 03:32:58;;;;;;;5.00;3.87;;;;;;;-143.84;90.64;43925.78;5109502;28;20806;-61
2023/06/07 03:35:25;;;;;;;7.70;3.30;;;;;;;-143.84;87.02;44479.78;5109797;28;20435;-61
2023/06/07 03:37:52;;;;;;;4.10;3.57;;;;;;;-143.84;82.88;44835.81;5109556;28;21194;-60
2023/06/07 03:40:21;;;;;;;8.47;3.60;;;;;;;-143.84;77.00;44990.03;5109499;28;21000;-60
2023/06/07 03:42:48;;;;;;;3.43;2.97;;;;;;;-143.84;71.49;45037.66;5109657;28;20935;-60
2023/06/07 03:45:15;;;;;;;8.20;3.33;;;;;;;-143.84;68.43;45037.66;5109420;28;20476;-60
2023/06/07 03:47:42;;;;;;;4.40;2.63;;;;;;;-143.84;65.28;45022.41;5109694;28;20467;-60
2023/06/07 03:50:10;;;;;;;8.00;3.50;;;;;;;-143.84;62.18;45033.84;5109737;28;20435;-61
2023/06/07 03:52:37;;;;;;;3.10;2.73;;;;;;;-143.84;61.26;45022.41;5109409;28;20504;-60
2023/06/07 03:55:05;;;;;;;5.27;3.23;;;;;;;-143.84;58.62;45031.94;5109281;28;20432;-61
2023/06/07 03:57:34;;;;;;;8.03;2.60;;;;;;;-143.84;56.55;45030.03;5109681;28;20506;-61
2023/06/07 04:00:05;;;;;;;4.90;2.80;;;;;;;-143.84;54.00;45018.59;5109831;28;20434;-64
2023/06/07 04:02:32;;;;;;;5.40;2.33;;;;;;;-143.84;52.67;45001.47;5109642;28;20447;-61
2023/06/07 04:04:59;;;;;;;3.83;2.33;;;;;;;-143.84;50.94;45031.94;5109660;28;20562;-60
2023/06/07 04:07:27;;;;;;;3.67;2.60;;;;;;;-143.84;49.82;45026.22;5109483;28;20515;-61
2023/06/07 04:09:54;;;;;;;6.40;2.30;;;;;;;-143.84;48.64;45020.50;5109461;28;20524;-60
2023/06/07 04:12:22;;;;;;;7.57;2.30;;;;;;;-143.84;47.45;45005.28;5109481;28;20502;-60
2023/06/07 04:14:50;;;;;;;4.83;2.27;;;;;;;-143.84;46.02;45022.41;5109681;28;20504;-61
2023/06/07 04:17:17;;;;;;;4.43;2.20;;;;;;;-143.84;45.94;44995.75;5109415;28;21012;-61
2023/06/07 04:19:44;;;;;;;10.33;2.77;;;;;;;-143.84;45.14;45020.50;5109356;28;20545;-61
2023/06/07 04:22:11;;;;;;;10.30;2.33;;;;;;;-143.84;44.22;45003.38;5109510;28;20925;-61
2023/06/07 04:24:38;;;;;;;3.90;2.53;;;;;;;-143.84;43.99;45007.19;5109417;28;20490;-58
2023/06/07 04:27:11;;;;;;;3.50;2.47;;;;;;;-143.84;43.65;44971.00;5109411;28;20810;-57
2023/06/07 04:29:40;;;;;;;5.07;2.43;;;;;;;-143.84;43.24;44995.75;5109420;28;20443;-60
2023/06/07 04:32:09;;;;;;;6.43;2.50;;;;;;;-143.84;43.37;45007.19;5109041;28;20442;-60
2023/06/07 04:34:41;;;;;;;14.53;2.50;;;;;;;-143.84;43.91;44995.75;5109008;28;20515;-60
2023/06/07 04:37:09;;;;;;;6.13;2.83;;;;;;;-143.84;43.85;44995.75;5109051;28;20487;-60
2023/06/07 04:39:36;;;;;;;6.60;2.70;;;;;;;-143.84;43.13;45010.97;5109038;28;20428;-60
2023/06/07 04:42:06;;;;;;;3.63;2.70;;;;;;;-143.84;42.42;44972.91;5109085;28;20428;-60
2023/06/07 04:44:33;;;;;;;8.13;2.97;;;;;;;-143.84;42.61;45018.59;5109117;28;20515;-60
2023/06/07 04:47:00;;;;;;;6.77;2.40;;;;;;;-143.84;41.56;45001.47;5108872;28;20496;-60
2023/06/07 04:49:29;;;;;;;3.77;2.40;;;;;;;-143.84;41.95;44993.84;5109111;28;20522;-60
2023/06/07 04:51:56;;;;;;;5.80;2.17;;;;;;;-143.84;41.59;44997.66;5108973;28;20448;-60
2023/06/07 04:54:23;;;;;;;8.37;2.60;;;;;;;-143.84;42.37;45012.88;5109006;28;20430;-60
2023/06/07 04:56:50;;;;;;;4.17;2.10;;;;;;;-143.84;40.63;44971.00;5109086;28;20504;-60
2023/06/07 04:59:18;;;;;;;4.63;2.00;;;;;;;-143.84;40.20;44990.03;5109138;28;20849;-60
2023/06/07 05:01:47;;;;;;;6.87;2.33;;;;;;;-143.84;40.67;44997.66;5109210;28;20873;-60
2023/06/07 05:04:16;;;;;;;6.13;2.20;;;;;;;-143.84;39.60;45005.28;5108889;28;20465;-60
2023/06/07 05:06:45;;;;;;;7.00;2.20;;;;;;;-143.84;40.27;44995.75;5109627;28;20569;-59
2023/06/07 05:09:12;;;;;;;29.60;13.30;;;;;;;-143.84;40.45;45005.28;5112851;28;20847;-59
2023/06/07 05:11:39;;;;;;;33.37;21.80;;;;;;;-143.84;40.37;45001.47;5112673;28;20435;-59
2023/06/07 05:14:06;;;;;;;3.70;2.43;;;;;;;-143.84;40.92;44991.94;5112372;28;20463;-59
2023/06/07 05:16:33;;;;;;;10.57;2.53;;;;;;;-143.84;40.77;44984.31;5112707;28;20444;-59
2023/06/07 05:19:03;;;;;;;7.13;2.30;;;;;;;-143.84;40.40;44971.00;5112397;28;20450;-60
2023/06/07 05:21:30;;;;;;;4.90;1.70;;;;;;;-143.84;40.31;44974.81;5112712;28;20436;-60
2023/06/07 05:23:59;;;;;;;3.53;2.17;;;;;;;-143.84;40.13;44976.72;5112585;28;20428;-60
2023/06/07 05:26:26;;;;;;;3.80;2.20;;;;;;;-143.84;40.66;45003.38;5112416;28;20904;-60
2023/06/07 05:28:53;;;;;;;1.90;1.80;;;;;;;-143.84;39.72;44995.75;5112518;28;20443;-60
2023/06/07 05:31:20;;;;;;;6.73;2.20;;;;;;;-143.84;40.61;44993.84;5112505;28;20440;-60
2023/06/07 05:33:47;;;;;;;3.10;2.37;;;;;;;-143.84;40.54;44988.13;5112340;28;20475;-61
2023/06/07 05:36:14;;;;;;;9.20;2.20;;;;;;;-143.84;40.80;44969.09;5112493;28;20507;-60
2023/06/07 05:38:42;;;;;;;11.30;1.97;;;;;;;-143.84;41.00;44982.41;5112424;28;20508;-60
2023/06/07 05:41:10;;;;;;;6.30;2.37;;;;;;;-143.84;40.71;44961.47;5112671;28;20477;-60
2023/06/07 05:43:38;;;;;;;3.23;2.40;;;;;;;-143.84;40.20;44993.84;5112198;28;21085;-60
2023/06/07 05:46:05;;;;;;;5.87;2.20;;;;;;;-143.84;40.37;44980.53;5112331;28;20566;-60
2023/06/07 05:48:32;;;;;;;3.70;2.10;;;;;;;-143.84;40.29;44969.09;5100003;28;20446;-60
2023/06/07 05:50:59;;;;;;;2.50;2.10;;;;;;;-143.84;40.54;44980.53;5091416;28;20985;-60
2023/06/07 05:53:27;;;;;;;5.80;2.33;;;;;;;-143.84;40.63;44969.09;5091590;28;20514;-60
2023/06/07 05:55:55;;;;;;;2.27;1.90;;;;;;;-143.84;40.94;44965.28;5091347;28;20478;-60
2023/06/07 05:58:24;;;;;;;4.90;2.43;;;;;;;-143.84;40.31;44982.41;5091797;28;20440;-60
2023/06/07 06:00:53;;;;;;;11.37;2.20;;;;;;;-143.84;39.96;44976.72;5091476;28;20453;-60
2023/06/07 06:03:20;;;;;;;2.23;2.00;;;;;;;-143.84;40.34;44984.31;5091408;28;20445;-60
2023/06/07 06:05:47;;;;;;;10.03;3.17;;;;;;;-143.84;40.53;44976.72;5091015;28;20827;-60
2023/06/07 06:08:15;;;;;;;8.57;2.37;;;;;;;-143.84;40.53;44969.09;5091541;28;20436;-60
2023/06/07 06:10:44;;;;;;;3.40;2.10;;;;;;;-143.84;40.68;44967.19;5091350;28;20440;-60
2023/06/07 06:13:11;;;;;;;9.27;2.30;;;;;;;-143.84;41.30;44999.56;5091223;28;20507;-60
2023/06/07 06:15:40;;;;;;;2.70;2.03;;;;;;;-143.84;41.12;44978.63;5090985;28;20486;-60
2023/06/07 06:18:07;;;;;;;12.23;2.47;;;;;;;-143.84;42.06;44980.53;5090074;28;20477;-60
2023/06/07 06:20:36;;;;;;;10.03;1.90;;;;;;;-143.84;41.69;44991.94;5090766;28;20494;-60
2023/06/07 06:23:05;;;;;;;4.00;2.47;;;;;;;-143.84;41.50;44993.84;5090955;28;20448;-60
2023/06/07 06:25:32;;;;;;;2.57;2.37;;;;;;;-143.84;41.03;44976.72;5090853;28;20486;-60
2023/06/07 06:27:59;;;;;;;2.70;2.40;;;;;;;-143.84;41.91;44984.31;5091121;28;21002;-60
2023/06/07 06:30:27;;;;;;;6.43;2.03;;;;;;;-143.84;42.06;44967.19;5090881;28;20433;-60
2023/06/07 06:32:56;;;;;;;3.53;2.93;;;;;;;-143.84;41.66;44972.91;5090751;28;20586;-60
2023/06/07 06:35:24;;;;;;;6.80;2.70;;;;;;;-143.84;41.82;44961.47;5090856;28;20444;-60
2023/06/07 06:37:51;;;;;;;4.77;2.53;;;;;;;-143.84;41.11;44982.41;5090609;28;20441;-60
2023/06/07 06:40:20;;;;;;;3.40;2.50;;;;;;;-143.84;41.84;44984.31;5091306;28;20446;-60
2023/06/07 06:42:47;;;;;;;5.50;2.33;;;;;;;-143.84;41.72;44972.91;5090484;28;20946;-60
2023/06/07 06:45:14;;;;;;;2.07;1.90;;;;;;;-143.84;42.39;44991.94;5090684;28;20448;-60
2023/06/07 06:47:42;;;;;;;7.07;2.53;;;;;;;-143.84;42.35;44963.38;5090196;28;20464;-60
2023/06/07 06:50:13;;;;;;;4.43;2.50;;;;;;;-143.84;42.05;44984.31;5089985;28;20542;-60
2023/06/07 06:52:40;;;;;;;8.30;2.10;;;;;;;-143.84;40.36;44953.88;5090235;28;21026;-60
2023/06/07 06:55:08;;;;;;;8.20;2.20;;;;;;;-143.84;39.30;44969.09;5090257;28;21011;-60
2023/06/07 06:57:35;;;;;;;4.73;2.50;;;;;;;-143.84;39.88;44971.00;5090394;28;20441;-60
2023/06/07 07:00:11;;;;;;;6.00;2.60;;;;;;;-143.84;40.60;44995.75;5089955;28;20441;-60
2023/06/07 07:02:38;;;;;;;4.03;2.07;;;;;;;-143.84;42.62;44982.41;5090085;28;20447;-60
2023/06/07 07:05:06;;;;;;;5.20;2.40;;;;;;;-143.84;41.91;45003.38;5089960;28;21008;-60
2023/06/07 07:07:35;;;;;;;4.77;2.70;;;;;;;-143.84;41.74;44972.91;5090315;28;20436;-60
2023/06/07 07:10:02;;;;;;;6.93;3.17;;;;;;;-143.84;42.31;44982.41;5090060;28;20502;-60
2023/06/07 07:12:29;;;;;;;5.63;2.67;;;;;;;-143.84;40.95;44986.22;5089926;28;20958;-59
2023/06/07 07:14:56;;;;;;;9.90;2.63;;;;;;;-143.84;42.08;44971.00;5089893;28;21083;-60
2023/06/07 07:17:23;;;;;;;7.13;2.80;;;;;;;-143.84;41.37;44963.38;5089825;28;20480;-60
2023/06/07 07:19:50;;;;;;;4.10;2.53;;;;;;;-143.84;41.71;44993.84;5089853;28;20448;-60
2023/06/07 07:22:17;;;;;;;2.70;2.17;;;;;;;-143.84;42.32;44978.63;5089832;28;20490;-60
2023/06/07 07:24:46;;;;;;;14.13;2.67;;;;;;;-143.84;42.28;44971.00;5089785;28;20494;-60
2023/06/07 07:27:13;;;;;;;10.23;2.70;;;;;;;-143.84;43.22;44990.03;5089793;28;20541;-60
2023/06/07 07:29:40;;;;;;;6.40;2.40;;;;;;;-143.84;42.66;44982.41;5089693;28;20433;-60
2023/06/07 07:32:08;;;;;;;7.30;3.00;;;;;;;-143.84;43.25;44988.13;5090283;28;20436;-60
2023/06/07 07:34:35;;;;;;;6.00;2.37;;;;;;;-143.84;43.33;44976.72;5089296;28;20509;-60
2023/06/07 07:37:03;;;;;;;7.40;2.87;;;;;;;-143.84;44.22;44967.19;5089716;28;20474;-60
2023/06/07 07:39:31;;;;;;;14.60;3.40;;;;;;;-143.84;44.99;44999.56;5089324;28;20444;-61
2023/06/07 07:42:03;;;;;;;8.73;2.93;;;;;;;-143.84;44.15;44971.00;5089360;28;20433;-60
2023/06/07 07:44:30;;;;;;;6.93;2.80;;;;;;;-143.84;44.37;44972.91;5089295;28;20449;-60
2023/06/07 07:46:57;;;;;;;5.97;2.30;;;;;;;-143.84;44.73;44980.53;5089241;28;20561;-61
2023/06/07 07:49:24;;;;;;;4.50;2.50;;;;;;;-143.84;44.78;44986.22;5089575;28;20474;-60
2023/06/07 07:51:51;;;;;;;6.13;2.90;;;;;;;-143.84;41.86;44991.94;5089527;28;20629;-60
2023/06/07 07:54:18;;;;;;;3.80;2.30;;;;;;;-143.84;42.04;44974.81;5089582;28;20447;-60
2023/06/07 07:56:45;;;;;;;12.93;2.50;;;;;;;-143.84;41.28;44980.53;5089256;28;20505;-60
2023/06/07 07:59:14;;;;;;;5.47;2.53;;;;;;;-143.84;43.51;44972.91;5089370;28;20494;-60
2023/06/07 08:01:41;;;;;;;16.10;2.60;;;;;;;-143.84;43.29;44988.13;5089400;28;20446;-60
2023/06/07 08:04:08;;;;;;;6.03;2.70;;;;;;;-143.84;43.72;44988.13;5089250;28;20437;-60
2023/06/07 08:06:35;;;;;;;13.50;2.57;;;;;;;-143.84;42.96;44978.63;5089173;28;20508;-59
2023/06/07 08:09:02;;;;;;;6.63;2.30;;;;;;;-143.84;43.08;44972.91;5089057;28;20885;-60
2023/06/07 08:11:29;;;;;;;2.33;2.13;;;;;;;-143.84;42.65;44969.09;5088583;28;20449;-60
2023/06/07 08:13:56;;;;;;;6.53;2.80;;;;;;;-143.84;43.41;44990.03;5088824;28;20995;-60
2023/06/07 08:16:25;;;;;;;3.53;2.30;;;;;;;-143.84;43.50;44982.41;5088576;28;21022;-60
2023/06/07 08:18:57;;;;;;;5.53;2.53;;;;;;;-143.84;44.06;44971.00;5089184;28;20562;-60
2023/06/07 08:21:24;;;;;;;2.80;2.10;;;;;;;-143.84;42.39;44980.53;5088890;28;20501;-60
2023/06/07 08:23:52;;;;;;;5.87;2.37;;;;;;;-143.84;43.92;44990.03;5088991;28;20914;-60
2023/06/07 08:26:19;;;;;;;5.10;2.50;;;;;;;-143.84;43.50;44972.91;5088771;28;20907;-60
2023/06/07 08:28:47;;;;;;;12.43;2.40;;;;;;;-143.84;44.21;44978.63;5088835;28;20468;-60
2023/06/07 08:31:14;;;;;;;3.10;2.57;;;;;;;-143.84;43.50;45003.38;5088583;28;20490;-60
2023/06/07 08:33:42;;;;;;;2.50;2.30;;;;;;;-143.84;41.35;44965.28;5088756;28;20529;-60
2023/06/07 08:36:09;;;;;;;10.33;2.40;;;;;;;-143.84;41.56;44974.81;5088689;28;20449;-60
2023/06/07 08:38:39;;;;;;;5.00;2.40;;;;;;;-143.84;42.49;44995.75;5088947;28;20513;-60
2023/06/07 08:41:07;;;;;;;7.70;2.30;;;;;;;-143.84;42.04;44971.00;5088852;28;20850;-61
2023/06/07 08:43:36;;;;;;;3.27;2.50;;;;;;;-143.84;43.56;44976.72;5099964;28;20479;-59
2023/06/07 08:46:04;;;;;;;5.13;1.90;;;;;;;-143.84;43.53;44984.31;5112751;28;20528;-60
2023/06/07 08:48:33;;;;;;;3.40;2.30;;;;;;;-143.84;40.80;45003.38;5112787;28;20525;-60
2023/06/07 08:51:03;;;;;;;5.40;2.00;;;;;;;-143.84;41.40;44991.94;5112558;28;20457;-60
2023/06/07 08:53:46;;;;;;;14.43;2.13;;;;;;;-143.84;40.97;44993.84;5112859;28;20444;-60
2023/06/07 08:56:15;;;;;;;6.90;2.27;;;;;;;-143.84;39.10;45001.47;5112603;28;20443;-60
2023/06/07 08:58:43;;;;;;;5.20;2.73;;;;;;;-143.84;38.92;44969.09;5112717;28;20449;-60
2023/06/07 09:01:11;;;;;;;115.07;88.33;;;;;;;-143.84;36.75;44990.03;5112454;28;20504;-59
2023/06/07 09:03:39;;;;;;;27.57;17.67;;;;;;;-143.84;38.84;44984.31;5112800;28;20874;-59
2023/06/07 09:06:08;;;;;;;6.10;4.53;;;;;;;-143.84;38.78;44999.56;5112361;28;20577;-61
2023/06/07 09:08:35;;;;;;;10.43;2.50;;;;;;;-143.84;39.17;44969.09;5112680;28;20483;-60
2023/06/07 09:11:03;;;;;;;6.43;2.87;;;;;;;-143.84;37.85;44980.53;5112639;28;20450;-60
2023/06/07 09:13:30;;;;;;;2.33;2.13;;;;;;;-143.84;37.98;44965.28;5112649;28;20803;-60
2023/06/07 09:15:59;;;;;;;9.57;2.23;;;;;;;-143.84;37.75;45003.38;5112197;28;20489;-61
2023/06/07 09:18:41;;;;;;;3.47;2.13;;;;;;;-143.84;39.00;44974.81;5112280;28;20442;-60
2023/06/07 09:21:20;;;;;;;9.53;2.33;;;;;;;-143.84;40.20;45007.19;5112377;28;20438;-60
2023/06/07 09:23:47;;;;;;;3.10;2.03;;;;;;;-143.84;38.86;44995.75;5112413;28;20801;-60
2023/06/07 09:26:14;;;;;;;8.40;2.10;;;;;;;-143.84;37.21;44999.56;5112185;28;20830;-60
2023/06/07 09:28:42;;;;;;;3.20;2.00;;;;;;;-143.84;38.74;45003.38;5112046;28;20434;-60
2023/06/07 09:31:09;;;;;;;3.93;2.20;;;;;;;-143.84;38.96;44995.75;5112213;28;21263;-61
2023/06/07 09:33:36;;;;;;;2.53;1.97;;;;;;;-143.84;39.06;44969.09;5112228;28;20501;-60
2023/06/07 09:36:04;;;;;;;5.83;2.27;;;;;;;-143.84;38.52;45005.28;5112210;28;20439;-60
2023/06/07 09:38:33;;;;;;;3.90;2.33;;;;;;;-143.84;38.28;44978.63;5112431;28;20453;-57
2023/06/07 09:41:01;;;;;;;6.00;1.80;;;;;;;-143.84;39.35;44991.94;5113314;28;20444;-57
2023/06/07 09:43:41;;;;;;;4.90;2.20;;;;;;;-143.84;39.22;44969.09;5112803;28;20973;-57
2023/06/07 09:46:08;;;;;;;6.60;2.20;;;;;;;-143.84;38.41;44995.75;5112894;28;20431;-57
2023/06/07 09:48:45;;;;;;;5.20;1.83;;;;;;;-143.84;38.61;44978.63;5112987;28;20471;-56
2023/06/07 09:51:12;;;;;;;3.83;1.90;;;;;;;-143.84;37.95;44957.66;5112673;28;20993;-57
2023/06/07 09:53:52;;;;;;;4.87;2.50;;;;;;;-143.84;38.45;44999.56;5112248;28;20440;-56
2023/06/07 09:56:21;;;;;;;2.70;2.20;;;;;;;-143.84;39.03;44978.63;5112410;28;20442;-56
2023/06/07 09:58:51;;;;;;;4.13;2.40;;;;;;;-143.84;39.69;44990.03;5112294;28;21325;-56
2023/06/07 10:01:34;;;;;;;9.73;2.40;;;;;;;-143.84;39.49;44995.75;5112411;28;20952;-56
2023/06/07 10:04:02;;;;;;;8.47;1.90;;;;;;;-143.84;41.06;44986.22;5110809;28;20466;-56
2023/06/07 10:06:33;;;;;;;4.03;2.10;;;;;;;-143.84;38.89;44976.72;5111945;28;21074;-56
2023/06/07 10:09:04;;;;;;;5.67;2.07;;;;;;;-143.84;39.38;44974.81;5112060;28;20449;-56
2023/06/07 10:11:33;;;;;;;2.37;2.03;;;;;;;-143.84;40.23;44999.56;5112324;28;20550;-56
2023/06/07 10:14:06;;;;;;;4.97;2.13;;;;;;;-143.84;38.82;44995.75;5112118;28;20455;-56
2023/06/07 10:16:36;;;;;;;3.57;1.73;;;;;;;-143.84;41.12;44988.13;5112239;28;20447;-56
2023/06/07 10:19:09;;;;;;;4.13;2.20;;;;;;;-143.84;41.02;44995.75;5112519;28;20447;-55
2023/06/07 10:21:41;;;;;;;2.40;2.17;;;;;;;-143.84;39.77;44976.72;5112500;28;20441;-55
2023/06/07 10:24:13;;;;;;;4.70;2.00;;;;;;;-143.84;40.68;44991.94;5112395;28;20518;-55
2023/06/07 10:26:48;;;;;;;3.10;1.57;;;;;;;-143.84;38.89;44990.03;5112026;28;20474;-55
2023/06/07 10:29:18;;;;;;;3.70;2.40;;;;;;;-143.84;40.39;44982.41;5112624;28;20948;-55
2023/06/07 10:31:54;;;;;;;4.37;2.07;;;;;;;-143.84;41.27;44990.03;5112168;28;20960;-55
2023/06/07 10:34:22;;;;;;;2.63;2.03;;;;;;;-143.84;40.03;44972.91;5112085;28;20431;-55
2023/06/07 10:36:49;;;;;;;3.40;1.80;;;;;;;-143.84;40.34;44997.66;5112003;28;20486;-55
2023/06/07 10:39:19;;;;;;;2.27;2.07;;;;;;;-143.84;40.22;44991.94;5111706;28;20514;-56
2023/06/07 10:41:46;;;;;;;7.03;2.37;;;;;;;-143.84;41.45;45005.28;5111720;28;20471;-56
2023/06/07 10:44:14;;;;;;;4.63;2.03;;;;;;;-143.84;42.11;44993.84;5111813;28;20500;-55
2023/06/07 10:46:41;;;;;;;5.57;2.53;;;;;;;-143.84;42.70;44995.75;5111783;28;20481;-55
2023/06/07 10:49:35;;;;;;;4.23;2.33;;;;;;;-143.84;43.34;44993.84;5111811;28;20438;-55
2023/06/07 10:52:02;;;;;;;5.53;2.40;;;;;;;-143.84;43.25;44971.00;5111844;28;20442;-55
2023/06/07 10:54:31;;;;;;;4.87;2.67;;;;;;;-143.84;42.96;45010.97;5111623;28;20438;-55
2023/06/07 10:57:00;;;;;;;5.00;2.47;;;;;;;-143.84;42.25;44993.84;5111398;28;20977;-55
2023/06/07 10:59:27;;;;;;;10.10;2.30;;;;;;;-143.84;39.97;44990.03;5111568;28;20516;-55
2023/06/07 11:02:14;;;;;;;3.13;2.50;;;;;;;-143.84;42.03;45005.28;5111300;28;20522;-55
2023/06/07 11:04:54;;;;;;;2.70;2.30;;;;;;;-143.84;46.29;45009.09;5110666;28;20516;-55
2023/06/07 11:07:23;;;;;;;4.23;2.80;;;;;;;-143.84;45.13;45026.22;5111758;28;20563;-55
2023/06/07 11:10:38;;;;;;;8.30;2.67;;;;;;;-143.84;44.20;44999.56;5111282;28;20443;-55
2023/06/07 11:13:05;;;;;;;5.43;2.50;;;;;;;-143.84;43.25;45007.19;5074674;28;20445;-55
2023/06/07 11:15:35;;;;;;;3.83;2.60;;;;;;;-143.84;44.58;44990.03;5110939;28;20985;-55
2023/06/07 11:18:04;;;;;;;16.80;2.90;;;;;;;-143.84;45.01;45005.28;5110992;28;20541;-55
2023/06/07 11:20:53;;;;;;;6.27;1.80;;;;;;;-143.84;43.62;44988.13;5110965;28;20452;-55
2023/06/07 11:23:25;;;;;;;4.07;2.60;;;;;;;-143.84;45.00;44997.66;5111048;28;20518;-55